createdAt,value
2024-03-03T00:31:53.397Z,8.60
2024-03-03T00:34:21.220Z,8.50
2024-03-03T00:36:48.772Z,8.50
2024-03-03T00:39:16.453Z,8.50
2024-03-03T00:41:43.996Z,8.40
2024-03-03T00:44:11.555Z,8.50
2024-03-03T00:46:39.163Z,8.40
2024-03-03T00:49:06.860Z,8.40
2024-03-03T00:51:34.464Z,8.40
2024-03-03T00:54:02.093Z,8.40
2024-03-03T01:03:53.387Z,8.40
2024-03-03T01:06:21.788Z,8.70
2024-03-03T01:08:49.368Z,8.70
2024-03-03T01:58:12.488Z,8.00
2024-03-03T02:00:40.760Z,8.00
2024-03-03T02:03:10.344Z,8.00
2024-03-03T02:10:36.481Z,7.50
2024-03-03T02:13:04.282Z,7.30
2024-03-03T02:20:29.405Z,7.20
2024-03-03T02:22:56.982Z,7.00
2024-03-03T02:25:24.766Z,6.90
2024-03-03T02:27:52.380Z,6.90
2024-03-03T02:30:20.022Z,6.80
2024-03-03T02:32:47.754Z,6.80
2024-03-03T02:35:16.088Z,7.00
2024-03-03T02:42:43.680Z,6.70
2024-03-03T02:45:11.393Z,6.70
2024-03-03T02:47:40.097Z,6.60
2024-03-03T02:50:08.552Z,6.80
2024-03-03T02:52:36.770Z,7.10
2024-03-03T02:55:04.687Z,7.10
2024-03-03T03:00:00.277Z,7.00
2024-03-03T03:02:27.833Z,6.90
2024-03-03T03:04:56.354Z,6.70
2024-03-03T03:29:39.905Z,7.20
2024-03-03T03:32:08.016Z,7.20
2024-03-03T03:34:35.546Z,7.20
2024-03-03T03:37:05.311Z,7.20
2024-03-03T03:39:33.811Z,7.20
2024-03-03T03:42:01.454Z,7.30
2024-03-03T03:44:29.053Z,7.30
2024-03-03T03:46:56.670Z,7.30
2024-03-03T04:09:08.622Z,7.40
2024-03-03T04:11:36.275Z,7.40
2024-03-03T04:14:03.837Z,7.40
2024-03-03T04:16:31.448Z,7.40
2024-03-03T04:18:59.079Z,7.40
2024-03-03T04:21:26.625Z,7.50
2024-03-03T04:23:54.251Z,7.50
2024-03-03T04:26:21.805Z,7.40
2024-03-03T04:28:49.386Z,7.40
2024-03-03T04:31:17.008Z,7.40
2024-03-03T04:33:44.644Z,7.40
2024-03-03T04:36:15.925Z,7.20
2024-03-03T04:38:43.662Z,7.20
2024-03-03T04:41:20.619Z,7.00
2024-03-03T04:43:48.441Z,6.90
2024-03-03T04:46:16.146Z,7.00
2024-03-03T04:48:43.955Z,6.60
2024-03-03T04:51:11.631Z,6.60
2024-03-03T05:01:04.588Z,6.10
2024-03-03T05:13:24.662Z,6.30
2024-03-03T05:35:39.771Z,6.90
2024-03-03T05:38:07.339Z,6.80
2024-03-03T05:40:34.871Z,6.50
2024-03-03T05:43:02.462Z,6.30
2024-03-03T05:47:57.998Z,6.30
2024-03-03T05:50:25.542Z,6.40
2024-03-03T05:52:53.109Z,6.20
2024-03-03T06:02:45.456Z,6.30
2024-03-03T06:07:40.869Z,6.40
2024-03-03T06:15:07.027Z,6.30
2024-03-03T06:17:34.702Z,6.20
2024-03-03T06:20:02.333Z,6.20
2024-03-03T06:27:25.983Z,6.50
2024-03-03T06:44:45.796Z,6.70
2024-03-03T06:47:13.313Z,6.80
2024-03-03T06:49:40.885Z,6.90
2024-03-03T06:52:08.618Z,6.90
2024-03-03T06:54:37.024Z,7.00
2024-03-03T06:57:05.029Z,7.00
2024-03-03T06:59:34.270Z,7.10
2024-03-03T07:02:01.883Z,7.20
2024-03-03T07:04:29.614Z,7.30
2024-03-03T07:06:58.323Z,7.40
2024-03-03T07:16:53.171Z,7.80
2024-03-03T07:19:21.155Z,7.90
2024-03-03T07:21:49.046Z,8.00
2024-03-03T07:24:16.934Z,8.10
2024-03-03T07:26:45.088Z,8.30
2024-03-03T07:29:12.668Z,8.40
2024-03-03T07:31:40.242Z,8.50
2024-03-03T07:34:08.004Z,8.70
2024-03-03T07:36:35.706Z,8.80
2024-03-03T07:39:03.326Z,9.00
2024-03-03T07:41:30.848Z,9.30
2024-03-03T07:43:58.364Z,9.10
2024-03-03T07:46:26.001Z,9.40
2024-03-03T07:48:53.718Z,9.80
2024-03-03T07:51:23.453Z,9.50
2024-03-03T07:53:51.104Z,9.90
2024-03-03T08:48:11.587Z,11.80
2024-03-03T08:50:39.177Z,11.90
2024-03-03T09:57:33.409Z,13.30
2024-03-03T10:00:01.123Z,13.50
2024-03-03T10:02:34.597Z,13.70
2024-03-03T10:05:03.248Z,13.80
2024-03-03T10:07:39.929Z,14.10
2024-03-03T10:10:12.203Z,14.20
2024-03-03T10:12:45.003Z,14.20
2024-03-03T10:15:13.594Z,14.20
2024-03-03T10:17:41.387Z,14.40
2024-03-03T10:20:10.110Z,14.50
2024-03-03T10:22:38.014Z,14.70
2024-03-03T10:25:16.895Z,14.60
2024-03-03T10:27:47.221Z,14.20
2024-03-03T10:30:19.853Z,14.10
2024-03-03T10:32:49.291Z,14.20
2024-03-03T10:35:20.041Z,14.30
2024-03-03T10:38:00.526Z,14.20
2024-03-03T10:40:28.674Z,14.40
2024-03-03T10:42:56.707Z,14.80
2024-03-03T10:45:24.465Z,15.10
2024-03-03T10:47:52.711Z,15.20
2024-03-03T10:50:23.528Z,15.30
2024-03-03T10:52:53.205Z,15.70
2024-03-03T10:55:20.930Z,15.90
2024-03-03T10:57:50.380Z,15.80
2024-03-03T11:00:28.566Z,15.50
2024-03-03T11:02:57.126Z,15.40
2024-03-03T11:05:25.153Z,15.40
2024-03-03T11:07:53.444Z,15.50
2024-03-03T11:10:21.284Z,15.50
2024-03-03T11:12:51.907Z,15.30
2024-03-03T11:15:22.527Z,15.00
2024-03-03T11:17:59.447Z,15.00
2024-03-03T11:20:37.221Z,15.00
2024-03-03T11:23:20.357Z,14.90
2024-03-03T11:26:17.129Z,15.10
2024-03-03T11:28:50.533Z,15.40
2024-03-03T11:31:18.321Z,16.00
2024-03-03T11:33:46.981Z,16.20
2024-03-03T11:36:15.262Z,16.30
2024-03-03T11:38:49.509Z,16.10
2024-03-03T11:41:21.878Z,15.90
2024-03-03T11:43:52.496Z,15.90
2024-03-03T11:46:52.651Z,15.70
2024-03-03T11:49:26.049Z,15.80
2024-03-03T11:51:54.006Z,15.70
2024-03-03T11:54:39.419Z,15.80
2024-03-03T11:57:12.395Z,16.00
2024-03-03T11:59:49.344Z,16.00
2024-03-03T12:02:18.365Z,16.40
2024-03-03T12:04:47.820Z,16.30
2024-03-03T12:07:20.245Z,16.20
2024-03-03T12:09:48.393Z,16.20
2024-03-03T12:12:15.977Z,16.60
2024-03-03T12:14:43.611Z,16.80
2024-03-03T12:17:11.338Z,16.90
2024-03-03T12:19:39.507Z,17.00
2024-03-03T12:22:09.628Z,17.50
2024-03-03T12:24:38.285Z,17.80
2024-03-03T12:27:06.023Z,18.40
2024-03-03T12:29:35.290Z,18.20
2024-03-03T12:32:05.226Z,17.70
2024-03-03T12:34:32.921Z,17.70
2024-03-03T12:37:00.716Z,17.40
2024-03-03T12:39:28.519Z,16.90
2024-03-03T12:41:56.165Z,16.90
2024-03-03T12:44:26.443Z,16.80
2024-03-03T12:46:54.004Z,16.40
2024-03-03T12:49:22.408Z,15.90
2024-03-03T12:51:52.482Z,15.90
2024-03-03T12:54:20.139Z,16.10
2024-03-03T12:56:48.335Z,16.40
2024-03-03T12:59:16.180Z,16.40
2024-03-03T13:01:43.984Z,16.40
2024-03-03T13:04:13.104Z,16.30
2024-03-03T13:06:42.636Z,16.10
2024-03-03T13:09:14.208Z,15.80
2024-03-03T13:11:42.324Z,15.80
2024-03-03T13:14:10.119Z,15.70
2024-03-03T13:16:37.787Z,15.50
2024-03-03T13:19:05.452Z,15.50
2024-03-03T13:21:33.072Z,15.50
2024-03-03T13:24:14.600Z,15.50
2024-03-03T13:26:43.524Z,15.50
2024-03-03T13:29:11.799Z,15.60
2024-03-03T13:31:39.613Z,15.80
2024-03-03T13:34:07.292Z,15.80
2024-03-03T13:36:34.924Z,15.90
2024-03-03T13:39:02.515Z,16.00
2024-03-03T13:41:30.832Z,16.00
2024-03-03T13:43:58.344Z,16.00
2024-03-03T13:46:26.530Z,16.00
2024-03-03T13:48:54.319Z,15.70
2024-03-03T13:51:22.223Z,15.70
2024-03-03T13:53:49.937Z,15.50
2024-03-03T13:56:17.507Z,15.50
2024-03-03T13:58:45.331Z,15.50
2024-03-03T14:01:17.553Z,15.60
2024-03-03T14:03:45.687Z,15.70
2024-03-03T14:06:14.839Z,16.10
2024-03-03T14:08:42.495Z,16.40
2024-03-03T14:11:10.403Z,16.30
2024-03-03T14:13:38.014Z,16.00
2024-03-03T14:16:06.116Z,16.00
2024-03-03T14:18:33.911Z,15.80
2024-03-03T14:21:04.887Z,15.90
2024-03-03T14:23:32.420Z,15.70
2024-03-03T14:26:00.061Z,15.60
2024-03-03T14:28:27.761Z,15.60
2024-03-03T14:30:55.483Z,15.50
2024-03-03T14:33:23.281Z,15.60
2024-03-03T14:35:51.466Z,15.20
2024-03-03T14:38:19.061Z,15.10
2024-03-03T14:40:47.266Z,15.20
2024-03-03T14:43:14.864Z,15.30
2024-03-03T14:45:42.456Z,15.30
2024-03-03T14:48:10.110Z,15.30
2024-03-03T14:50:37.845Z,15.20
2024-03-03T14:53:05.465Z,15.20
2024-03-03T14:55:33.181Z,15.10
2024-03-03T14:58:00.881Z,15.00
2024-03-03T15:00:29.392Z,15.00
2024-03-03T15:02:57.180Z,15.20
2024-03-03T15:05:24.905Z,15.10
2024-03-03T15:07:53.153Z,15.00
2024-03-03T15:10:20.998Z,14.90
2024-03-03T15:12:48.780Z,14.80
2024-03-03T15:15:16.571Z,14.70
2024-03-03T15:17:44.831Z,14.60
2024-03-03T15:20:15.921Z,14.50
2024-03-03T15:22:49.622Z,14.40
2024-03-03T15:25:18.525Z,14.40
2024-03-03T15:27:46.150Z,14.40
2024-03-03T15:30:14.696Z,14.30
2024-03-03T15:32:43.000Z,14.20
2024-03-03T15:35:11.803Z,14.10
2024-03-03T15:37:39.703Z,14.10
2024-03-03T15:40:08.460Z,14.00
2024-03-03T15:42:36.248Z,14.00
2024-03-03T15:45:04.508Z,14.00
2024-03-03T15:47:32.151Z,14.00
2024-03-03T15:49:59.681Z,13.90
2024-03-03T15:52:27.540Z,13.90
2024-03-03T15:54:55.278Z,13.80
2024-03-03T15:57:22.931Z,13.80
2024-03-03T15:59:50.512Z,13.80
2024-03-03T16:02:18.983Z,13.70
2024-03-03T16:04:46.893Z,13.70
2024-03-03T16:07:14.841Z,13.70
2024-03-03T16:09:42.481Z,13.60
2024-03-03T16:12:11.755Z,13.50
2024-03-03T16:14:39.280Z,13.50
2024-03-03T16:17:07.067Z,13.40
2024-03-03T16:19:34.757Z,13.30
2024-03-03T16:22:02.504Z,13.30
2024-03-03T16:24:30.082Z,13.30
2024-03-03T16:26:57.773Z,13.20
2024-03-03T16:29:25.350Z,13.10
2024-03-03T16:31:53.420Z,13.00
2024-03-03T16:34:21.228Z,13.00
2024-03-03T16:36:48.828Z,12.90
2024-03-03T16:39:16.500Z,12.90
2024-03-03T16:41:44.036Z,12.80
2024-03-03T16:44:11.608Z,12.70
2024-03-03T16:46:39.275Z,12.60
2024-03-03T16:49:07.114Z,12.60
2024-03-03T16:51:35.164Z,12.60
2024-03-03T16:54:04.001Z,12.50
2024-03-03T16:56:31.605Z,12.30
2024-03-03T16:58:59.160Z,12.20
2024-03-03T17:01:26.866Z,12.10
2024-03-03T17:03:54.524Z,12.10
2024-03-03T17:06:22.193Z,12.00
2024-03-03T17:08:49.831Z,11.90
2024-03-03T17:11:17.741Z,11.90
2024-03-03T17:13:45.381Z,11.80
2024-03-03T17:16:13.672Z,11.80
2024-03-03T17:18:41.365Z,11.60
2024-03-03T17:21:08.891Z,11.60
2024-03-03T17:23:36.438Z,11.60
2024-03-03T17:26:04.095Z,11.50
2024-03-03T17:28:31.804Z,11.60
2024-03-03T17:30:59.405Z,11.50
2024-03-03T17:33:26.940Z,11.40
2024-03-03T17:35:54.553Z,11.30
2024-03-03T17:38:22.298Z,11.30
2024-03-03T17:40:49.988Z,11.30
2024-03-03T17:43:17.755Z,11.30
2024-03-03T17:45:45.345Z,11.30
2024-03-03T17:48:15.163Z,11.30
2024-03-03T17:50:44.355Z,11.20
2024-03-03T17:53:11.979Z,11.10
2024-03-03T17:55:39.650Z,11.20
2024-03-03T17:58:07.659Z,11.20
2024-03-03T18:00:35.261Z,11.20
2024-03-03T18:03:02.893Z,11.20
2024-03-03T18:05:30.404Z,11.30
2024-03-03T18:07:57.943Z,11.30
2024-03-03T18:10:26.158Z,11.30
2024-03-03T18:12:53.869Z,11.30
2024-03-03T18:15:21.529Z,11.30
2024-03-03T18:17:49.159Z,11.30
2024-03-03T18:20:17.142Z,11.40
2024-03-03T18:22:44.831Z,11.30
2024-03-03T18:25:12.739Z,11.30
2024-03-03T18:27:40.491Z,11.20
2024-03-03T18:30:09.579Z,11.20
2024-03-03T18:32:38.638Z,11.30
2024-03-03T18:35:08.563Z,11.30
2024-03-03T18:37:37.773Z,11.20
2024-03-03T18:40:08.577Z,11.30
2024-03-03T18:42:36.575Z,11.40
2024-03-03T18:45:04.432Z,11.40
2024-03-03T18:47:32.342Z,11.30
2024-03-03T18:50:00.101Z,11.40
2024-03-03T18:52:27.916Z,11.40
2024-03-03T18:55:00.155Z,11.40
2024-03-03T18:57:28.532Z,11.40
2024-03-03T18:59:56.241Z,11.30
2024-03-03T19:02:25.412Z,11.10
2024-03-03T19:04:53.132Z,10.90
2024-03-03T19:07:20.818Z,10.80
2024-03-03T19:09:48.514Z,10.80
2024-03-03T19:12:16.086Z,10.80
2024-03-03T19:14:43.621Z,10.80
2024-03-03T19:17:11.221Z,11.00
2024-03-03T19:19:40.340Z,11.00
2024-03-03T19:22:07.995Z,11.00
2024-03-03T19:24:35.675Z,11.00
2024-03-03T19:27:03.324Z,10.90
2024-03-03T19:29:30.880Z,10.80
2024-03-03T19:31:59.190Z,10.90
2024-03-03T19:34:26.899Z,10.90
2024-03-03T19:36:58.075Z,11.00
2024-03-03T19:39:26.397Z,11.00
2024-03-03T19:41:53.911Z,11.00
2024-03-03T19:44:21.495Z,11.00
2024-03-03T19:46:49.032Z,11.00
2024-03-03T19:49:18.459Z,11.00
2024-03-03T19:51:48.405Z,11.00
2024-03-03T19:54:17.805Z,10.90
2024-03-03T19:56:45.411Z,10.90
2024-03-03T19:59:13.564Z,10.80
2024-03-03T20:01:41.087Z,10.80
2024-03-03T20:04:09.242Z,10.70
2024-03-03T20:06:36.949Z,10.70
2024-03-03T20:09:04.620Z,10.60
2024-03-03T20:11:32.423Z,10.60
2024-03-03T20:14:00.039Z,10.60
2024-03-03T20:16:27.790Z,10.40
2024-03-03T20:18:55.552Z,10.40
2024-03-03T20:21:26.389Z,10.30
2024-03-03T20:23:54.072Z,10.10
2024-03-03T20:26:21.741Z,10.00
2024-03-03T20:28:49.831Z,9.90
2024-03-03T20:31:17.630Z,9.90
2024-03-03T20:33:45.200Z,10.00
2024-03-03T20:36:14.702Z,9.90
2024-03-03T20:38:43.094Z,9.80
2024-03-03T20:41:10.832Z,9.80
2024-03-03T20:43:38.519Z,9.80
2024-03-03T20:46:06.119Z,9.80
2024-03-03T20:48:33.616Z,9.70
2024-03-03T20:51:01.136Z,9.70
2024-03-03T20:53:28.711Z,9.70
2024-03-03T20:55:56.229Z,9.60
2024-03-03T20:58:23.860Z,9.60
2024-03-03T21:00:51.694Z,9.60
2024-03-03T21:08:21.459Z,9.80
2024-03-03T21:10:49.341Z,9.90
2024-03-03T21:13:18.440Z,9.90
2024-03-03T21:15:46.366Z,10.00
2024-03-03T21:18:13.906Z,9.90
2024-03-03T21:20:41.755Z,9.70
2024-03-03T21:23:09.272Z,9.80
2024-03-03T21:25:36.922Z,9.70
2024-03-03T21:28:04.909Z,9.70
2024-03-03T21:30:32.497Z,9.60
2024-03-03T21:33:00.119Z,9.40
2024-03-03T21:35:27.729Z,9.30
2024-03-03T21:37:55.295Z,9.20
2024-03-03T21:42:53.275Z,9.10
2024-03-03T21:45:21.092Z,9.00
2024-03-03T21:47:48.675Z,9.00
2024-03-03T23:29:04.845Z,8.30
2024-03-03T23:31:32.490Z,8.30
2024-03-03T23:34:00.079Z,8.30
2024-03-03T23:36:27.696Z,8.30
2024-03-03T23:38:55.549Z,8.30
2024-03-03T23:41:23.457Z,8.20
2024-03-03T23:43:51.107Z,8.20
2024-03-03T23:46:19.210Z,8.20
2024-03-03T23:48:46.853Z,8.10
2024-03-03T23:51:14.411Z,8.20
2024-03-03T23:53:41.991Z,8.30
2024-03-03T23:56:09.556Z,8.20
2024-03-03T23:58:37.198Z,8.20
